Como, Mississippi
Current Conditions -  °F | °C
As of 10:15 PM on Sunday 25 Jan 2015 (Local Time) from KUOX Reporting Station
Overcast Overcast  
Wind Chill:   Ceiling: 2700
Heat Index:   Visibility: 10mi
Dew Point:   Wind: 17mph
Humidity: 66%   Direction: 300°WNW
Pressure: 29.92"   Gusts: 25mph
Location:  34.51°N, 89.94°W
Report Text: KUOX 260415Z AUTO 30015G22KT 10SM OVC027 06/00 A2992 RMK AO2 PWINO PNO
Loading
Personal Weather Stations






























Interactive Weather Map New forecast layout! Learn more

10-Day Weather Forecast

Advertisements
Track Severe Weather on mobile